Dickinson Theodore Roosevelt Regional Airport
KDIK : now visible

Airfield :











YOU CAN JOIN US ON...

 
LOGIN :

Register | Disclaimer

   EN    FR    IT 

 









Legend :    VFR   Marginal VFR   IFR   Intensive IFR   Very Intensive IFR
Visi :
Ceiling :
>= 8 km
>= 3000ft
5 to 8 km
1000 to 3000 ft
1500m to 5 km
500 to 1000 ft
800 to 1500m
200 to 500 ft
< 800m
< 200 ft
Symbols :   Thunderstorms  Fog  Heavy snow  Heavy precipitations  Wind > 20 kt






- Airport Elevation : 2592 ft


KDIK - Dickinson Theodore Roosevelt Regional

CURRENT METAR :
  • 011756Z AUTO 32019G29KT 7SM OVC010 M07/M09 A2985 RMK AO2 PK WND 33029/1747 SLP141 60002 I6000 T10721094 11011 21072 51016

EXPIRED METARs :
  • 011656Z AUTO 32017G29KT 10SM OVC010 M07/M09 A2985 RMK AO2 PK WND 31029/1649 SLP138 T10721094
  • 011556Z AUTO 33015KT 10SM OVC009 M05/M07 A2980 RMK AO2 PK WND 31026/1542 SNE07 CIG 008V014 SLP119 P0000 T10501072

TAF KDIK
Valid from the 01 at 18:00 until the 02 at 18:00 UTC


011720Z 0118/0218 31019G29KT P6SM SCT015
TEMPO 0118/0120 P6SM OVC010
FM020300 32014KT P6SM FEW020 SCT045
FM020800 32012G20KT P6SM SCT017 OVC060
FM021300 33014KT P6SM OVC030
FM021500 33015G23KT P6SM VCSH OVC025



MET'MAP, your aeronautical weather chart ! - Copyright ORBIFLY December 2007 - Disclaimer

ORBIFLY MET'MAP TEAM :

Programming & Development : Alexandra Zaïnal
Concept & original design : Baudouin d'Aumeries
Assistance for programming : Marc-Olivier Méhu
Technical & hardware support : Manuel Goepfert

Contact : metmap@orbifly.com




SOURCES & CREDITS :

   NOAA       Earth
Advisory